McLeod, ND (58057)

4:14 PM CST on December 06, 2016 (GMT -0600)
Between the fields | | Change Station
Active Advisory: Winter Weather Advisory Active Notice: Public Information Statement

Elev 1047 ft 46.25 °N, 97.12 °W | Updated 3 seconds ago

Overcast
Overcast
15.9 °F
Feels Like -1 °F
N
20.0
Wind Variable Wind from West

Today
High -- | Low -- °F
--% Chance of Precip.
Yesterday
High -- | Low -- °F
Precip. -- in
Pressure 29.65 in
Visibility 1.8 miles
Clouds Mostly Cloudy 1600 ft
Overcast 2100 ft
Windchill -1 °F
Dew Point 11 °F
Humidity 81%
Rainfall 0.00 in
Snow Depth Not available.
7:58 AM 4:42 PM
Waxing Crescent, 45% visible
METAR KBWP 062155Z AUTO 28034G38KT 1 3/4SM BKN016 OVC021 M07/M10 A2965 RMK AO1
Pressure 29.65 in
Visibility 1.8 miles
Clouds Mostly Cloudy 1600 ft
Overcast 2100 ft
Windchill -1 °F
Dew Point 11 °F
Humidity 81%
Rainfall 0.00 in
Snow Depth Not available.
7:58 AM 4:42 PM
Waxing Crescent, 45% visible
METAR KBWP 062155Z AUTO 28034G38KT 1 3/4SM BKN016 OVC021 M07/M10 A2965 RMK AO1

10-Day Weather Forecast

Almanac

Astronomy

Dec. 06, 2016 Rise Set
Actual Time
Civil Twilight
Nautical Twilight
Astronomical Twilight
Moon
Length of Visible Light
Length of Day
Tomorrow will be .
, % of the Moon is Illuminated

Today's Extremes

State Highs State Lows

Community

WunderPhotos

Upload Photos

1,956,038 photos uploaded!

WunderBlog® & News

Nearby

Air Quality

  Air Quality AQ Index Pollutant
Not available.

Snow Depth

Station Depth Elevation

Earthquake Activity

City Distance Mag. Time & Date
Minimum magnitude displayed is 2.5.

Coastal Water Temperatures

Place Temperature

Stations

Nearby Weather Stations

Station Location Temp. Windchill Dew Point Humidity Wind Precip. Elev Updated Type
                   

Watches & Warnings

Winter Weather Advisory
Issued: 12:05 PM CST Dec. 6, 2016 – National Weather Service

... Winter Weather Advisory remains in effect until midnight CST
tonight...

* timing... periods of snow and blowing snow will continue
through the day and into tonight.

* Snow accumulations... 2 to 4 inches.

* Winds... west 30 to 40 mph with gusts up to 50 mph.

* Visibilities... less than one half mile at times... especially
in open areas.

Precautionary/preparedness actions...

A Winter Weather Advisory for blowing snow means that
visibilities will be limited due to strong winds blowing snow
around. Use caution when traveling... especially in open areas.